createdAt,value
2019-02-27T00:04:02.425Z,31.75
2019-02-27T00:07:14.103Z,31.69
2019-02-27T00:09:48.551Z,31.68
2019-02-27T00:12:40.555Z,31.42
2019-02-27T00:15:37.757Z,31.28
2019-02-27T00:18:30.997Z,30.81
2019-02-27T00:24:12.155Z,30.01
2019-02-27T00:26:44.690Z,30.02
2019-02-27T00:29:16.646Z,30.00
2019-02-27T00:32:07.808Z,29.91
2019-02-27T00:34:58.357Z,30.06
2019-02-27T00:37:51.962Z,30.35
2019-02-27T00:40:24.887Z,30.32
2019-02-27T00:43:38.462Z,30.17
2019-02-27T00:46:13.380Z,30.13
2019-02-27T00:49:03.682Z,30.16
2019-02-27T00:51:50.482Z,30.32
2019-02-27T00:58:06.115Z,29.99
2019-02-27T01:00:45.260Z,30.47
2019-02-27T01:03:17.508Z,30.76
2019-02-27T01:05:52.097Z,30.81
2019-02-27T01:08:39.242Z,30.94
2019-02-27T01:11:02.610Z,30.95
2019-02-27T01:16:56.649Z,30.89
2019-02-27T01:19:29.495Z,31.38
2019-02-27T01:22:02.132Z,31.46
2019-02-27T01:24:53.103Z,31.82
2019-02-27T01:27:25.364Z,32.06
2019-02-27T01:29:57.744Z,32.19
2019-02-27T01:32:48.360Z,32.68
2019-02-27T01:35:21.951Z,32.68
2019-02-27T01:37:52.985Z,32.81
2019-02-27T01:40:43.654Z,32.98
2019-02-27T01:43:15.993Z,32.95
2019-02-27T01:45:46.798Z,33.05
2019-02-27T01:48:42.733Z,33.01
2019-02-27T01:51:16.156Z,32.90
2019-02-27T01:54:23.821Z,33.09
2019-02-27T01:57:05.489Z,33.27
2019-02-27T01:59:56.123Z,33.45
2019-02-27T02:02:29.219Z,33.38
2019-02-27T02:04:59.233Z,33.46
2019-02-27T02:07:49.907Z,33.16
2019-02-27T02:10:22.064Z,32.99
2019-02-27T02:13:17.033Z,33.01
2019-02-27T02:16:27.001Z,32.94
2019-02-27T02:19:37.226Z,32.99
2019-02-27T02:22:46.972Z,33.14
2019-02-27T02:25:45.454Z,33.08
2019-02-27T02:28:55.641Z,33.23
2019-02-27T02:32:05.506Z,33.37
2019-02-27T02:35:15.785Z,33.62
2019-02-27T02:38:26.169Z,33.99
2019-02-27T02:41:21.028Z,34.40
2019-02-27T02:44:32.772Z,34.73
2019-02-27T02:47:34.059Z,35.04
2019-02-27T02:50:33.941Z,35.45
2019-02-27T02:53:42.845Z,35.75
2019-02-27T02:56:52.146Z,35.87
2019-02-27T03:00:02.338Z,36.19
2019-02-27T03:03:17.910Z,35.95
2019-02-27T03:06:34.565Z,35.75
2019-02-27T03:09:55.278Z,35.21
2019-02-27T03:13:05.991Z,35.12
2019-02-27T03:19:33.212Z,34.96
2019-02-27T03:22:42.598Z,34.99
2019-02-27T03:25:53.087Z,35.17
2019-02-27T03:29:02.387Z,35.16
2019-02-27T03:32:12.662Z,35.12
2019-02-27T03:35:27.546Z,34.43
2019-02-27T03:38:34.493Z,34.43
2019-02-27T03:41:28.930Z,35.39
2019-02-27T03:44:27.844Z,35.99
2019-02-27T03:47:22.802Z,36.03
2019-02-27T03:50:31.186Z,36.71
2019-02-27T03:53:43.352Z,36.72
2019-02-27T03:56:54.977Z,37.43
2019-02-27T04:00:04.293Z,37.72
2019-02-27T04:03:17.099Z,37.98
2019-02-27T04:06:24.479Z,38.22
2019-02-27T04:09:33.867Z,38.58
2019-02-27T04:12:23.572Z,38.89
2019-02-27T04:15:17.664Z,39.14
2019-02-27T04:18:03.584Z,39.35
2019-02-27T04:20:37.222Z,39.46
2019-02-27T04:26:15.106Z,39.38
2019-02-27T04:29:08.331Z,39.27
2019-02-27T04:31:40.285Z,39.20
2019-02-27T04:34:11.096Z,38.91
2019-02-27T04:37:02.325Z,38.51
2019-02-27T04:39:54.365Z,38.30
2019-02-27T04:42:26.522Z,38.23
2019-02-27T04:44:58.441Z,38.24
2019-02-27T04:47:31.569Z,38.52
2019-02-27T04:50:23.129Z,38.72
2019-02-27T04:52:57.738Z,38.67
2019-02-27T04:55:48.014Z,38.74
2019-02-27T04:58:42.823Z,38.84
2019-02-27T05:01:30.731Z,38.72
2019-02-27T05:04:04.570Z,38.80
2019-02-27T05:06:55.258Z,38.63
2019-02-27T05:09:45.596Z,38.84
2019-02-27T05:15:45.456Z,38.75
2019-02-27T05:18:36.141Z,38.82
2019-02-27T05:24:32.772Z,38.74
2019-02-27T05:27:03.591Z,38.77
2019-02-27T05:30:04.067Z,38.72
2019-02-27T05:33:01.816Z,38.77
2019-02-27T05:35:47.908Z,38.76
2019-02-27T05:44:10.993Z,37.95
2019-02-27T05:46:44.011Z,37.84
2019-02-27T05:49:16.324Z,37.89
2019-02-27T05:51:48.432Z,37.89
2019-02-27T05:54:20.058Z,38.15
2019-02-27T05:56:53.818Z,38.22
2019-02-27T05:59:29.407Z,38.47
2019-02-27T06:02:22.342Z,38.75
2019-02-27T06:05:16.946Z,38.66
2019-02-27T06:11:36.936Z,39.00
2019-02-27T06:14:26.889Z,39.00
2019-02-27T06:16:58.207Z,39.18
2019-02-27T06:19:33.564Z,39.24
2019-02-27T06:22:10.783Z,39.45
2019-02-27T06:24:45.581Z,39.67
2019-02-27T06:27:21.506Z,39.73
2019-02-27T06:29:56.587Z,39.87
2019-02-27T06:32:44.624Z,39.93
2019-02-27T06:35:19.451Z,40.00
2019-02-27T06:37:58.297Z,39.97
2019-02-27T06:40:32.826Z,40.10
2019-02-27T06:43:44.486Z,39.52
2019-02-27T06:46:27.302Z,38.40
2019-02-27T06:49:29.186Z,37.01
2019-02-27T06:52:14.154Z,36.02
2019-02-27T06:55:04.244Z,35.04
2019-02-27T06:57:54.642Z,34.63
2019-02-27T07:00:46.354Z,34.06
2019-02-27T07:06:21.663Z,32.57
2019-02-27T07:08:55.105Z,32.24
2019-02-27T07:11:33.603Z,32.27
2019-02-27T07:14:05.267Z,32.50
2019-02-27T07:16:37.872Z,32.63
2019-02-27T07:19:08.205Z,32.76
2019-02-27T07:22:17.861Z,32.77
2019-02-27T07:25:08.608Z,33.08
2019-02-27T07:30:59.783Z,33.35
2019-02-27T07:33:34.091Z,33.56
2019-02-27T07:38:57.537Z,33.52
2019-02-27T07:41:30.113Z,33.64
2019-02-27T07:44:57.689Z,33.72
2019-02-27T07:47:15.412Z,33.99
2019-02-27T07:50:23.447Z,33.83
2019-02-27T07:52:54.187Z,33.71
2019-02-27T07:56:02.601Z,33.63
2019-02-27T07:59:59.437Z,33.41
2019-02-27T08:02:05.570Z,33.27
2019-02-27T08:04:55.337Z,33.43
2019-02-27T08:07:48.661Z,32.66
2019-02-27T08:10:36.760Z,32.26
2019-02-27T08:13:29.588Z,31.73
2019-02-27T08:15:56.389Z,31.94
2019-02-27T08:18:46.131Z,31.63
2019-02-27T08:21:17.945Z,31.04
2019-02-27T08:23:56.394Z,30.55
2019-02-27T08:26:26.902Z,30.76
2019-02-27T08:29:37.681Z,30.61
2019-02-27T08:32:28.115Z,30.53
2019-02-27T08:38:38.227Z,31.43
2019-02-27T08:41:31.490Z,31.50
2019-02-27T08:44:07.882Z,30.94
2019-02-27T08:46:57.689Z,31.46
2019-02-27T08:52:57.814Z,31.84
2019-02-27T08:55:30.876Z,31.56
2019-02-27T08:58:26.759Z,31.36
2019-02-27T09:07:22.091Z,30.00
2019-02-27T09:10:30.904Z,29.76
2019-02-27T09:13:05.815Z,29.66
2019-02-27T09:15:59.376Z,29.36
2019-02-27T09:19:01.173Z,28.91
2019-02-27T09:27:20.094Z,27.79
2019-02-27T09:30:28.485Z,27.62
2019-02-27T09:33:04.912Z,27.24
2019-02-27T09:35:47.162Z,27.28
2019-02-27T09:38:24.399Z,27.43
2019-02-27T09:43:52.433Z,26.38
2019-02-27T09:46:49.866Z,25.88
2019-02-27T09:49:25.095Z,25.40
2019-02-27T09:52:34.126Z,24.90
2019-02-27T09:55:25.265Z,24.71
2019-02-27T10:01:24.219Z,24.20
2019-02-27T10:04:47.768Z,22.69
2019-02-27T10:07:23.091Z,22.22
2019-02-27T10:10:33.439Z,22.15
2019-02-27T10:13:04.111Z,21.98
2019-02-27T10:16:03.688Z,21.45
2019-02-27T10:18:39.930Z,20.73
2019-02-27T10:21:17.171Z,20.32
2019-02-27T10:26:53.544Z,20.37
2019-02-27T10:29:24.579Z,20.33
2019-02-27T10:32:00.716Z,20.33
2019-02-27T10:34:31.511Z,20.34
2019-02-27T10:41:02.953Z,20.66
2019-02-27T10:50:04.048Z,19.87
2019-02-27T10:52:56.484Z,19.82
2019-02-27T10:55:57.376Z,19.40
2019-02-27T10:59:09.056Z,18.89
2019-02-27T11:04:43.485Z,18.58
2019-02-27T11:13:51.409Z,17.94
2019-02-27T11:17:03.392Z,17.69
2019-02-27T11:22:47.062Z,16.93
2019-02-27T11:25:37.575Z,16.83
2019-02-27T11:28:08.933Z,16.56
2019-02-27T11:30:59.791Z,16.46
2019-02-27T11:36:29.756Z,15.96
2019-02-27T11:39:19.362Z,16.28
2019-02-27T11:42:10.584Z,16.42
2019-02-27T11:45:14.228Z,16.02
2019-02-27T11:50:43.631Z,16.15
2019-02-27T11:53:36.005Z,15.47
2019-02-27T11:59:57.791Z,14.90
2019-02-27T12:02:37.843Z,14.89
2019-02-27T12:08:48.930Z,14.95
2019-02-27T12:11:40.657Z,15.09
2019-02-27T12:14:25.692Z,14.88
2019-02-27T12:16:57.799Z,15.13
2019-02-27T12:23:07.384Z,15.00
2019-02-27T12:26:06.380Z,14.43
2019-02-27T12:28:59.516Z,14.57
2019-02-27T12:32:06.637Z,14.57
2019-02-27T12:35:13.193Z,14.21
2019-02-27T12:40:32.949Z,13.44
2019-02-27T12:46:34.803Z,12.95
2019-02-27T12:49:38.975Z,13.16
2019-02-27T12:52:48.076Z,13.10
2019-02-27T13:01:33.335Z,13.45
2019-02-27T13:04:19.925Z,13.45
2019-02-27T13:06:41.227Z,13.33
2019-02-27T13:15:26.375Z,12.95
2019-02-27T13:18:19.100Z,13.08
2019-02-27T13:21:12.288Z,12.98
2019-02-27T13:23:42.707Z,13.06
2019-02-27T13:26:34.708Z,12.48
2019-02-27T13:32:26.550Z,13.06
2019-02-27T13:34:59.105Z,13.09
2019-02-27T13:37:46.041Z,12.98
2019-02-27T13:43:58.260Z,13.02
2019-02-27T13:46:29.905Z,12.99
2019-02-27T13:49:00.397Z,12.93
2019-02-27T13:51:36.134Z,12.91
2019-02-27T13:54:06.790Z,12.96
2019-02-27T13:57:00.854Z,12.75
2019-02-27T13:59:46.526Z,13.26
2019-02-27T14:02:47.533Z,13.26
2019-02-27T14:08:57.580Z,12.91
2019-02-27T14:11:52.402Z,12.90
2019-02-27T14:14:26.336Z,13.04
2019-02-27T14:17:41.302Z,12.76
2019-02-27T14:20:11.797Z,12.77
2019-02-27T14:22:46.098Z,13.07
2019-02-27T14:25:28.474Z,12.81
2019-02-27T14:28:09.346Z,13.03
2019-02-27T14:31:00.766Z,12.93
2019-02-27T14:36:51.889Z,13.34
2019-02-27T14:40:03.762Z,12.68
2019-02-27T14:42:56.205Z,13.06
2019-02-27T14:45:47.138Z,13.38
2019-02-27T14:48:18.140Z,13.28
2019-02-27T14:50:52.640Z,13.72
2019-02-27T14:53:23.991Z,13.82
2019-02-27T14:56:00.201Z,13.36
2019-02-27T14:58:40.419Z,13.55
2019-02-27T15:01:11.831Z,13.61
2019-02-27T15:04:13.898Z,13.69
2019-02-27T15:06:51.449Z,14.04
2019-02-27T15:09:47.826Z,14.26
2019-02-27T15:12:16.184Z,13.95
2019-02-27T15:15:06.837Z,13.98
2019-02-27T15:18:16.204Z,14.16
2019-02-27T15:21:13.253Z,14.10
2019-02-27T15:23:50.755Z,14.34
2019-02-27T15:26:22.612Z,14.34
2019-02-27T15:28:57.365Z,14.65
2019-02-27T15:38:04.601Z,14.42
2019-02-27T15:40:57.074Z,14.30
2019-02-27T15:44:00.258Z,14.24
2019-02-27T15:47:01.393Z,14.67
2019-02-27T15:52:22.708Z,14.64
2019-02-27T15:58:11.397Z,14.66
2019-02-27T16:00:52.297Z,14.44
2019-02-27T16:03:38.991Z,14.52
2019-02-27T16:06:19.819Z,14.51
2019-02-27T16:09:11.940Z,14.89
2019-02-27T16:16:11.378Z,14.90
2019-02-27T16:18:44.006Z,15.20
2019-02-27T16:21:33.719Z,15.15
2019-02-27T16:24:44.148Z,15.11
2019-02-27T16:28:00.182Z,15.25
2019-02-27T16:30:32.757Z,15.23
2019-02-27T16:33:25.242Z,15.23
2019-02-27T16:36:00.457Z,15.08
2019-02-27T16:38:31.648Z,15.27
2019-02-27T16:41:27.953Z,15.69
2019-02-27T16:44:21.798Z,15.98
2019-02-27T16:47:11.851Z,16.38
2019-02-27T16:59:09.702Z,17.49
2019-02-27T17:02:00.908Z,17.76
2019-02-27T17:04:17.356Z,17.88
2019-02-27T17:06:49.135Z,18.01
2019-02-27T17:09:23.880Z,18.11
2019-02-27T17:11:56.097Z,18.22
2019-02-27T17:14:45.535Z,18.27
2019-02-27T17:17:18.862Z,17.98
2019-02-27T17:20:12.587Z,18.21
2019-02-27T17:23:15.009Z,18.75
2019-02-27T17:25:37.416Z,19.00
2019-02-27T17:28:08.264Z,18.75
2019-02-27T17:37:06.464Z,19.07
2019-02-27T17:43:01.119Z,18.95
2019-02-27T17:45:31.961Z,19.34
2019-02-27T17:53:57.964Z,20.19
2019-02-27T17:56:38.490Z,20.54
2019-02-27T17:59:31.680Z,20.77
2019-02-27T18:02:34.869Z,21.04
2019-02-27T18:05:35.486Z,21.12
2019-02-27T18:08:16.241Z,21.25
2019-02-27T18:11:15.614Z,21.53
2019-02-27T18:14:25.322Z,21.65
2019-02-27T18:17:18.124Z,21.73
2019-02-27T18:20:40.315Z,21.51
2019-02-27T18:38:37.302Z,21.80
2019-02-27T18:40:58.976Z,21.69
2019-02-27T18:43:50.235Z,21.81
2019-02-27T18:47:21.089Z,21.86
2019-02-27T18:50:32.138Z,21.97
2019-02-27T18:53:23.200Z,22.08
2019-02-27T18:55:57.820Z,22.33
2019-02-27T18:58:31.105Z,22.82
2019-02-27T19:07:07.677Z,23.23
2019-02-27T19:09:59.856Z,23.16
2019-02-27T19:16:10.137Z,22.39
2019-02-27T19:19:42.501Z,22.17
2019-02-27T19:25:44.395Z,22.67
2019-02-27T19:28:59.355Z,22.81
2019-02-27T19:31:30.046Z,22.40
2019-02-27T19:34:07.348Z,22.40
2019-02-27T19:43:05.534Z,22.48
2019-02-27T19:45:36.721Z,22.59
2019-02-27T19:54:20.665Z,22.61
2019-02-27T19:57:24.942Z,22.69
2019-02-27T20:00:14.443Z,22.94
2019-02-27T20:03:04.671Z,22.78
2019-02-27T20:05:56.155Z,22.96
2019-02-27T20:08:49.232Z,23.34
2019-02-27T20:11:58.738Z,23.58
2019-02-27T20:17:54.141Z,23.76
2019-02-27T20:20:45.362Z,23.03
2019-02-27T20:23:48.951Z,23.33
2019-02-27T20:26:44.587Z,23.69
2019-02-27T20:29:46.765Z,23.87
2019-02-27T20:32:18.353Z,24.03
2019-02-27T20:34:52.150Z,24.68
2019-02-27T20:41:00.678Z,25.27
2019-02-27T20:52:53.268Z,26.15
2019-02-27T21:01:49.814Z,25.85
2019-02-27T21:04:22.063Z,25.08
2019-02-27T21:06:56.428Z,24.53
2019-02-27T21:09:36.398Z,24.21
2019-02-27T21:17:50.661Z,24.04
2019-02-27T21:20:23.782Z,23.71
2019-02-27T21:23:13.194Z,24.01
2019-02-27T21:26:22.981Z,24.30
2019-02-27T21:29:14.922Z,24.60
2019-02-27T21:32:04.529Z,24.86
2019-02-27T21:35:14.193Z,25.01
2019-02-27T21:37:46.201Z,25.17
2019-02-27T21:40:18.819Z,25.41
2019-02-27T21:43:08.655Z,25.41
2019-02-27T21:45:39.881Z,25.54
2019-02-27T21:51:19.260Z,25.95
2019-02-27T21:54:00.313Z,26.24
2019-02-27T21:57:12.103Z,26.29
2019-02-27T21:59:55.288Z,26.47
2019-02-27T22:06:01.354Z,26.46
2019-02-27T22:08:50.892Z,26.69
2019-02-27T22:14:51.577Z,26.85
2019-02-27T22:20:36.941Z,27.02
2019-02-27T22:23:45.991Z,27.12
2019-02-27T22:30:05.558Z,26.81
2019-02-27T22:32:55.642Z,26.72
2019-02-27T22:35:45.156Z,26.72
2019-02-27T22:38:53.980Z,27.16
2019-02-27T22:41:45.044Z,27.10
2019-02-27T22:47:18.461Z,27.45
2019-02-27T22:50:10.145Z,27.65
2019-02-27T22:53:04.472Z,28.00
2019-02-27T22:55:46.774Z,28.27
2019-02-27T23:17:13.844Z,29.97
2019-02-27T23:20:20.912Z,30.75
2019-02-27T23:26:41.443Z,31.64
2019-02-27T23:29:50.413Z,32.05
2019-02-27T23:32:51.035Z,32.63
2019-02-27T23:38:34.894Z,33.26
2019-02-27T23:41:39.634Z,33.05
2019-02-27T23:44:39.358Z,33.33
2019-02-27T23:53:58.638Z,33.44
2019-02-27T23:56:36.394Z,33.58
